Climatologie pour Saint-Brevin les Pins
Jour • Résumé pour avril 26, 2017 Système :  Métrique    Anglais   Mixte
« - 1 jour
+ 1 jour »
Jour Semaine Mois Année Personnalisé
  Maximum : Minimum : Moyenne :
Température sous abri : 14.2 °C 0.3 °C 5.7 °C
Point de rosée : 6.0 °C -0.9 °C 2.4 °C
Humidité : 94 % 47 % 81 %
Vitesse du vent : 24.1 km/h 0.0 km/h 5.1 km/h
Rafale : 35.4 km/h - -
Direction :- - SE
Pression : 1019.9 hPa 1014.1 hPa -
Précipitations : 2.3 mm    
Historical Graphs
 
 
Tableau de données pour avril 26, 2017
Heure Tempé Pt rosée Pression Vent Vitesse Rafale Humidité Taux pluie (/hr) Soleil
00:00 4.2 °C 1.2 °C 1014.1 hPa North 4.8 km/h 12.9 km/h 81 % 0.0 mm 0 W/m2
00:10 3.9 °C 1.1 °C 1014.1 hPa NNE 1.6 km/h 9.7 km/h 82 % 0.0 mm 0 W/m2
00:15 4.1 °C 1.3 °C 1014.1 hPa NNW 1.6 km/h 9.7 km/h 82 % 0.0 mm 0 W/m2
00:20 4.2 °C 1.2 °C 1014.1 hPa North 4.8 km/h 11.3 km/h 81 % 0.0 mm 0 W/m2
00:25 4.2 °C 1.2 °C 1014.4 hPa North 4.8 km/h 12.9 km/h 81 % 0.0 mm 0 W/m2
00:30 4.2 °C 1.2 °C 1014.4 hPa NNE 8.0 km/h 12.9 km/h 81 % 0.0 mm 0 W/m2
00:35 4.2 °C 1.2 °C 1014.4 hPa Calm   12.9 km/h 81 % 0.0 mm 0 W/m2
00:40 4.1 °C 1.3 °C 1014.4 hPa North 3.2 km/h 12.9 km/h 82 % 0.0 mm 0 W/m2
00:45 3.9 °C 1.1 °C 1014.4 hPa North 9.7 km/h 12.9 km/h 82 % 0.0 mm 0 W/m2
00:50 3.8 °C 1.0 °C 1014.4 hPa Calm   12.9 km/h 82 % 0.0 mm 0 W/m2
00:55 3.7 °C 1.1 °C 1014.4 hPa North 1.6 km/h 14.5 km/h 83 % 0.0 mm 0 W/m2
01:00 3.8 °C 1.2 °C 1014.4 hPa NNW 3.2 km/h 14.5 km/h 83 % 0.0 mm 0 W/m2
01:05 3.7 °C 1.1 °C 1014.4 hPa NE 8.0 km/h 11.3 km/h 83 % 0.0 mm 0 W/m2
01:10 3.8 °C 1.2 °C 1014.4 hPa North 3.2 km/h 11.3 km/h 83 % 0.0 mm 0 W/m2
01:15 3.7 °C 1.0 °C 1014.8 hPa NNW 9.7 km/h 11.3 km/h 83 % 0.0 mm 0 W/m2
01:20 3.7 °C 1.0 °C 1014.8 hPa North 6.4 km/h 9.7 km/h 83 % 0.0 mm 0 W/m2
01:25 3.5 °C 0.9 °C 1014.8 hPa Calm   9.7 km/h 83 % 0.0 mm 0 W/m2
01:30 3.3 °C 0.8 °C 1014.8 hPa North 3.2 km/h 9.7 km/h 84 % 0.0 mm 0 W/m2
01:35 3.1 °C 0.7 °C 1014.8 hPa NNW 1.6 km/h 8.0 km/h 84 % 0.0 mm 0 W/m2
01:40 2.9 °C 0.7 °C 1014.8 hPa Calm   8.0 km/h 85 % 0.0 mm 0 W/m2
01:45 2.8 °C 0.7 °C 1014.8 hPa Calm   6.4 km/h 86 % 0.0 mm 0 W/m2
01:50 2.6 °C 0.5 °C 1014.8 hPa NNW 3.2 km/h 8.0 km/h 86 % 0.0 mm 0 W/m2
01:55 2.6 °C 0.6 °C 1014.8 hPa North 4.8 km/h 8.0 km/h 87 % 0.0 mm 0 W/m2
02:00 2.4 °C 0.5 °C 1014.8 hPa North 3.2 km/h 8.0 km/h 87 % 0.0 mm 0 W/m2
02:05 2.3 °C 0.4 °C 1014.8 hPa North 1.6 km/h 8.0 km/h 87 % 0.0 mm 0 W/m2
02:10 2.3 °C 0.4 °C 1014.8 hPa North 3.2 km/h 8.0 km/h 87 % 0.0 mm 0 W/m2
02:15 2.2 °C 0.4 °C 1014.4 hPa NNW 4.8 km/h 6.4 km/h 88 % 0.0 mm 0 W/m2
02:20 2.0 °C 0.2 °C 1014.8 hPa NNW 1.6 km/h 6.4 km/h 88 % 0.0 mm 0 W/m2
02:25 1.8 °C 0.2 °C 1014.4 hPa NNW 1.6 km/h 6.4 km/h 89 % 0.0 mm 0 W/m2
02:30 1.7 °C 0.1 °C 1014.4 hPa Calm   4.8 km/h 89 % 0.0 mm 0 W/m2
02:35 1.6 °C 0.1 °C 1014.4 hPa NNW 3.2 km/h 4.8 km/h 90 % 0.0 mm 0 W/m2
02:40 1.6 °C 0.1 °C 1014.8 hPa NNW 6.4 km/h 8.0 km/h 90 % 0.0 mm 0 W/m2
02:45 1.4 °C -0.1 °C 1014.4 hPa North 1.6 km/h 8.0 km/h 90 % 0.0 mm 0 W/m2
02:50 1.4 °C 0.1 °C 1014.4 hPa NNE 4.8 km/h 8.0 km/h 91 % 0.0 mm 0 W/m2
02:55 1.3 °C 0.0 °C 1014.4 hPa NNE 6.4 km/h 8.0 km/h 91 % 0.0 mm 0 W/m2
03:00 1.3 °C 0.0 °C 1014.4 hPa North 1.6 km/h 8.0 km/h 91 % 0.0 mm 0 W/m2
03:05 1.3 °C 0.0 °C 1014.4 hPa North 4.8 km/h 8.0 km/h 91 % 0.0 mm 0 W/m2
03:10 1.3 °C -0.2 °C 1014.8 hPa North 3.2 km/h 6.4 km/h 90 % 0.0 mm 0 W/m2
03:15 1.2 °C -0.1 °C 1014.4 hPa North 1.6 km/h 8.0 km/h 91 % 0.0 mm 0 W/m2
03:20 1.2 °C -0.1 °C 1014.8 hPa North 6.4 km/h 8.0 km/h 91 % 0.0 mm 0 W/m2
03:25 1.2 °C -0.1 °C 1014.8 hPa North 1.6 km/h 9.7 km/h 91 % 0.0 mm 0 W/m2
03:30 1.3 °C 0.0 °C 1014.8 hPa North 4.8 km/h 9.7 km/h 91 % 0.0 mm 0 W/m2
03:35 1.3 °C 0.0 °C 1014.8 hPa Calm   12.9 km/h 91 % 0.0 mm 0 W/m2
03:40 1.4 °C 0.1 °C 1014.8 hPa NNW 4.8 km/h 12.9 km/h 91 % 0.0 mm 0 W/m2
03:45 1.3 °C 0.0 °C 1014.8 hPa NNE 8.0 km/h 14.5 km/h 91 % 0.0 mm 0 W/m2
03:50 1.5 °C 0.2 °C 1014.8 hPa North 8.0 km/h 14.5 km/h 91 % 0.0 mm 0 W/m2
03:55 1.7 °C 0.4 °C 1014.8 hPa North 1.6 km/h 14.5 km/h 91 % 0.0 mm 0 W/m2
04:00 1.7 °C 0.3 °C 1014.8 hPa North 9.7 km/h 17.7 km/h 90 % 0.0 mm 0 W/m2
04:05 1.9 °C 0.5 °C 1014.8 hPa North 4.8 km/h 17.7 km/h 90 % 0.0 mm 0 W/m2
04:10 2.0 °C 0.4 °C 1014.8 hPa NNW 4.8 km/h 11.3 km/h 89 % 0.0 mm 0 W/m2
04:15 1.8 °C 0.2 °C 1014.8 hPa North 1.6 km/h 11.3 km/h 89 % 0.0 mm 0 W/m2
04:20 1.7 °C 0.0 °C 1014.8 hPa Calm   9.7 km/h 89 % 0.0 mm 0 W/m2
04:25 1.4 °C -0.2 °C 1014.8 hPa North 3.2 km/h 9.7 km/h 89 % 0.0 mm 0 W/m2
04:30 1.4 °C 0.0 °C 1014.8 hPa Calm   11.3 km/h 90 % 0.0 mm 0 W/m2
04:35 1.4 °C -0.1 °C 1014.8 hPa NNW 1.6 km/h 11.3 km/h 90 % 0.0 mm 0 W/m2
04:40 1.4 °C -0.1 °C 1014.8 hPa NNE 3.2 km/h 9.7 km/h 90 % 0.0 mm 0 W/m2
04:45 1.5 °C 0.0 °C 1014.8 hPa NNE 4.8 km/h 11.3 km/h 90 % 0.0 mm 0 W/m2
04:50 1.5 °C 0.0 °C 1014.8 hPa NNE 1.6 km/h 12.9 km/h 90 % 0.0 mm 0 W/m2
04:55 1.8 °C 0.4 °C 1014.8 hPa North 8.0 km/h 12.9 km/h 90 % 0.0 mm 0 W/m2
05:00 1.9 °C 0.3 °C 1014.8 hPa North 9.7 km/h 14.5 km/h 89 % 0.0 mm 0 W/m2
05:10 2.1 °C 0.3 °C 1014.8 hPa NNW 4.8 km/h 17.7 km/h 88 % 0.0 mm 0 W/m2
05:15 2.1 °C 0.3 °C 1014.8 hPa NNW 6.4 km/h 14.5 km/h 88 % 0.0 mm 0 W/m2
05:20 2.2 °C 0.3 °C 1014.8 hPa North 9.7 km/h 14.5 km/h 87 % 0.0 mm 0 W/m2
05:25 2.2 °C 0.4 °C 1014.8 hPa North 4.8 km/h 12.9 km/h 88 % 0.0 mm 0 W/m2
05:30 2.0 °C 0.1 °C 1014.8 hPa North 3.2 km/h 11.3 km/h 87 % 0.0 mm 0 W/m2
05:35 1.9 °C 0.1 °C 1014.8 hPa North 9.7 km/h 9.7 km/h 88 % 0.0 mm 0 W/m2
05:40 1.7 °C -0.1 °C 1014.8 hPa NNE 4.8 km/h 11.3 km/h 88 % 0.0 mm 0 W/m2
05:45 1.7 °C -0.1 °C 1014.8 hPa NE 4.8 km/h 11.3 km/h 88 % 0.0 mm 0 W/m2
05:50 1.6 °C -0.2 °C 1014.8 hPa North 3.2 km/h 9.7 km/h 88 % 0.0 mm 0 W/m2
05:55 1.5 °C -0.1 °C 1014.8 hPa Calm   9.7 km/h 89 % 0.0 mm 0 W/m2
06:00 1.3 °C -0.3 °C 1014.8 hPa North 1.6 km/h 8.0 km/h 89 % 0.0 mm 0 W/m2
06:05 1.4 °C 0.0 °C 1014.8 hPa NNE 3.2 km/h 8.0 km/h 90 % 0.0 mm 0 W/m2
06:10 1.4 °C -0.2 °C 1014.8 hPa North 3.2 km/h 8.0 km/h 89 % 0.0 mm 0 W/m2
06:15 1.4 °C -0.2 °C 1014.8 hPa North 3.2 km/h 9.7 km/h 89 % 0.0 mm 0 W/m2
06:20 1.3 °C -0.2 °C 1014.8 hPa NNE 3.2 km/h 9.7 km/h 90 % 0.0 mm 0 W/m2
06:25 1.3 °C -0.1 °C 1015.1 hPa NNE 1.6 km/h 9.7 km/h 90 % 0.0 mm 0 W/m2
06:30 1.2 °C -0.4 °C 1015.1 hPa Calm   9.7 km/h 89 % 0.0 mm 0 W/m2
06:35 1.1 °C -0.3 °C 1015.1 hPa North 3.2 km/h 6.4 km/h 90 % 0.0 mm 0 W/m2
06:40 0.9 °C -0.5 °C 1015.1 hPa Calm   6.4 km/h 90 % 0.0 mm 0 W/m2
06:45 1.1 °C -0.2 °C 1015.1 hPa Calm   9.7 km/h 91 % 0.0 mm 0 W/m2
06:50 0.9 °C -0.6 °C 1015.1 hPa Calm   9.7 km/h 90 % 0.0 mm 0 W/m2
06:55 0.6 °C -0.8 °C 1015.1 hPa Calm   3.2 km/h 90 % 0.0 mm 0 W/m2
07:00 0.5 °C -0.8 °C 1015.5 hPa Calm   3.2 km/h 91 % 0.0 mm 0 W/m2
07:05 0.6 °C -0.6 °C 1015.5 hPa Calm   4.8 km/h 92 % 0.0 mm 5 W/m2
07:10 0.6 °C -0.7 °C 1015.5 hPa North 3.2 km/h 4.8 km/h 91 % 0.0 mm 7 W/m2
07:15 0.4 °C -0.8 °C 1015.5 hPa North 3.2 km/h 4.8 km/h 92 % 0.0 mm 11 W/m2
07:20 0.3 °C -0.9 °C 1015.5 hPa North 1.6 km/h 4.8 km/h 92 % 0.0 mm 12 W/m2
07:25 0.3 °C -0.9 °C 1015.5 hPa North 1.6 km/h 4.8 km/h 92 % 0.0 mm 16 W/m2
07:30 0.3 °C -0.7 °C 1015.5 hPa Calm   6.4 km/h 93 % 0.0 mm 19 W/m2
07:35 0.6 °C -0.4 °C 1015.8 hPa North 8.0 km/h 8.0 km/h 93 % 0.0 mm 21 W/m2
07:40 1.1 °C 0.3 °C 1015.8 hPa NE 3.2 km/h 9.7 km/h 94 % 0.0 mm 25 W/m2
07:45 1.4 °C 0.4 °C 1015.5 hPa NNE 8.0 km/h 9.7 km/h 93 % 0.0 mm 26 W/m2
07:50 1.6 °C 0.5 °C 1015.8 hPa NNE 3.2 km/h 9.7 km/h 93 % 0.0 mm 28 W/m2
07:55 1.8 °C 0.8 °C 1015.8 hPa Calm   9.7 km/h 93 % 0.0 mm 30 W/m2
08:00 1.8 °C 0.7 °C 1015.8 hPa Calm   6.4 km/h 92 % 0.0 mm 32 W/m2
08:05 2.0 °C 0.8 °C 1015.8 hPa North 3.2 km/h 6.4 km/h 92 % 0.0 mm 33 W/m2
08:10 2.2 °C 1.0 °C 1015.8 hPa NE 1.6 km/h 8.0 km/h 92 % 0.0 mm 37 W/m2
08:15 2.4 °C 1.3 °C 1015.8 hPa NNE 4.8 km/h 8.0 km/h 92 % 0.0 mm 39 W/m2
08:20 2.5 °C 1.2 °C 1015.8 hPa NNE 3.2 km/h 8.0 km/h 91 % 0.0 mm 40 W/m2
08:25 2.8 °C 1.5 °C 1015.8 hPa Calm   8.0 km/h 91 % 0.0 mm 107 W/m2
08:30 3.3 °C 1.8 °C 1015.8 hPa NNE 1.6 km/h 9.7 km/h 90 % 0.0 mm 193 W/m2
08:35 3.6 °C 2.1 °C 1016.1 hPa North 8.0 km/h 9.7 km/h 90 % 0.0 mm 207 W/m2
08:40 4.0 °C 2.4 °C 1016.1 hPa NNE 3.2 km/h 14.5 km/h 89 % 0.0 mm 223 W/m2
08:45 4.3 °C 2.3 °C 1016.1 hPa North 3.2 km/h 14.5 km/h 87 % 0.0 mm 239 W/m2
08:50 4.6 °C 2.3 °C 1016.1 hPa NNE 4.8 km/h 14.5 km/h 85 % 0.0 mm 255 W/m2
08:55 4.9 °C 2.4 °C 1016.1 hPa NE 6.4 km/h 14.5 km/h 84 % 0.0 mm 267 W/m2
09:05 5.7 °C 2.8 °C 1016.1 hPa NE 3.2 km/h 11.3 km/h 82 % 0.0 mm 294 W/m2
09:10 5.8 °C 2.8 °C 1016.1 hPa NNW 3.2 km/h 11.3 km/h 81 % 0.0 mm 311 W/m2
09:15 6.1 °C 2.9 °C 1016.1 hPa NNW 1.6 km/h 11.3 km/h 80 % 0.0 mm 327 W/m2
09:20 6.3 °C 3.0 °C 1016.1 hPa North 12.9 km/h 12.9 km/h 79 % 0.0 mm 345 W/m2
09:25 6.6 °C 3.2 °C 1016.1 hPa NNW 1.6 km/h 12.9 km/h 79 % 0.0 mm 359 W/m2
09:30 6.9 °C 3.5 °C 1016.1 hPa North 6.4 km/h 12.9 km/h 79 % 0.0 mm 367 W/m2
09:35 7.2 °C 3.6 °C 1016.1 hPa NNE 11.3 km/h 17.7 km/h 78 % 0.0 mm 388 W/m2
09:40 7.2 °C 3.5 °C 1016.1 hPa North 8.0 km/h 17.7 km/h 77 % 0.0 mm 403 W/m2
09:45 7.4 °C 3.7 °C 1016.1 hPa North 8.0 km/h 17.7 km/h 77 % 0.0 mm 417 W/m2
09:50 7.8 °C 4.2 °C 1016.1 hPa NNW 9.7 km/h 16.1 km/h 78 % 0.0 mm 431 W/m2
09:55 7.9 °C 4.0 °C 1016.1 hPa NW 4.8 km/h 17.7 km/h 76 % 0.0 mm 446 W/m2
10:00 8.1 °C 3.7 °C 1016.5 hPa NE 4.8 km/h 17.7 km/h 74 % 0.0 mm 461 W/m2
10:05 8.4 °C 4.4 °C 1016.1 hPa ENE 3.2 km/h 17.7 km/h 76 % 0.0 mm 475 W/m2
10:10 8.7 °C 4.5 °C 1016.1 hPa NNE 9.7 km/h 17.7 km/h 75 % 0.0 mm 492 W/m2
10:15 8.7 °C 4.1 °C 1016.1 hPa NNW 6.4 km/h 16.1 km/h 73 % 0.0 mm 508 W/m2
10:20 8.8 °C 4.4 °C 1016.1 hPa ENE 1.6 km/h 19.3 km/h 74 % 0.0 mm 522 W/m2
10:25 8.9 °C 4.3 °C 1016.1 hPa NNW 6.4 km/h 19.3 km/h 73 % 0.0 mm 545 W/m2
10:30 9.1 °C 4.3 °C 1016.1 hPa North 8.0 km/h 17.7 km/h 72 % 0.0 mm 571 W/m2
10:35 9.2 °C 4.4 °C 1016.1 hPa NE 6.4 km/h 17.7 km/h 72 % 0.0 mm 568 W/m2
10:40 9.5 °C 4.9 °C 1016.5 hPa NE 6.4 km/h 14.5 km/h 73 % 0.0 mm 585 W/m2
10:45 9.7 °C 4.9 °C 1016.1 hPa North 11.3 km/h 17.7 km/h 72 % 0.0 mm 585 W/m2
10:50 9.8 °C 4.6 °C 1016.1 hPa ENE 12.9 km/h 17.7 km/h 70 % 0.0 mm 608 W/m2
10:55 9.7 °C 4.5 °C 1016.5 hPa NE 9.7 km/h 19.3 km/h 70 % 0.0 mm 631 W/m2
11:00 9.9 °C 4.1 °C 1016.1 hPa NNW 1.6 km/h 19.3 km/h 67 % 0.0 mm 629 W/m2
11:05 9.9 °C 4.1 °C 1016.5 hPa NNE 9.7 km/h 17.7 km/h 67 % 0.0 mm 638 W/m2
11:10 9.6 °C 3.3 °C 1016.5 hPa NNE 9.7 km/h 19.3 km/h 65 % 0.0 mm 671 W/m2
11:15 9.9 °C 4.0 °C 1016.5 hPa NE 6.4 km/h 19.3 km/h 67 % 0.0 mm 666 W/m2
11:20 10.3 °C 4.5 °C 1016.5 hPa NE 9.7 km/h 17.7 km/h 67 % 0.0 mm 705 W/m2
11:25 10.3 °C 3.8 °C 1016.5 hPa NNE 8.0 km/h 16.1 km/h 64 % 0.0 mm 731 W/m2
11:30 10.4 °C 3.7 °C 1016.5 hPa North 16.1 km/h 19.3 km/h 63 % 0.0 mm 765 W/m2
11:35 10.4 °C 3.2 °C 1016.5 hPa ENE 8.0 km/h 20.9 km/h 61 % 0.0 mm 155 W/m2
11:40 10.1 °C 3.2 °C 1016.5 hPa ENE 6.4 km/h 20.9 km/h 62 % 0.0 mm 837 W/m2
11:45 11.4 °C 5.0 °C 1016.5 hPa North 9.7 km/h 17.7 km/h 65 % 0.0 mm 838 W/m2
11:50 11.7 °C 4.4 °C 1016.5 hPa ENE 3.2 km/h 20.9 km/h 61 % 0.0 mm 867 W/m2
11:55 10.7 °C 2.8 °C 1016.5 hPa NNE 8.0 km/h 20.9 km/h 58 % 0.0 mm 181 W/m2
12:00 11.4 °C 3.9 °C 1016.5 hPa East 3.2 km/h 16.1 km/h 60 % 0.0 mm 847 W/m2
12:05 12.0 °C 3.0 °C 1016.5 hPa ENE 14.5 km/h 19.3 km/h 54 % 0.0 mm 838 W/m2
12:10 11.7 °C 2.4 °C 1016.5 hPa East 14.5 km/h 19.3 km/h 53 % 0.0 mm 805 W/m2
12:15 11.5 °C 1.4 °C 1016.5 hPa ENE 11.3 km/h 19.3 km/h 50 % 0.0 mm 849 W/m2
12:20 12.2 °C 2.9 °C 1016.5 hPa NNE 3.2 km/h 19.3 km/h 53 % 0.0 mm 923 W/m2
12:25 12.2 °C 2.4 °C 1016.5 hPa NW 4.8 km/h 16.1 km/h 51 % 0.0 mm 1004 W/m2
12:30 12.4 °C 1.7 °C 1016.5 hPa ENE 4.8 km/h 16.1 km/h 48 % 0.0 mm 981 W/m2
12:35 12.4 °C 2.3 °C 1016.5 hPa North 4.8 km/h 20.9 km/h 50 % 0.0 mm 1093 W/m2
12:40 11.6 °C 1.0 °C 1016.5 hPa NNE 8.0 km/h 20.9 km/h 48 % 0.0 mm 371 W/m2
12:45 11.8 °C 2.3 °C 1016.5 hPa North 6.4 km/h 9.7 km/h 52 % 0.0 mm 348 W/m2
12:50 11.4 °C 2.1 °C 1016.5 hPa NE 8.0 km/h 12.9 km/h 53 % 0.0 mm 171 W/m2
12:55 10.6 °C 3.1 °C 1016.5 hPa NNW 12.9 km/h 17.7 km/h 60 % 0.0 mm 116 W/m2
13:00 10.1 °C 2.9 °C 1016.5 hPa NNW 1.6 km/h 17.7 km/h 61 % 0.0 mm 128 W/m2
13:05 9.8 °C 3.7 °C 1016.8 hPa NE 6.4 km/h 17.7 km/h 66 % 0.0 mm 264 W/m2
13:10 9.7 °C 4.3 °C 1016.8 hPa East 1.6 km/h 14.5 km/h 69 % 0.0 mm 325 W/m2
13:15 10.0 °C 3.7 °C 1016.8 hPa ENE 11.3 km/h 22.5 km/h 65 % 0.0 mm 229 W/m2
13:20 9.1 °C 1.7 °C 1016.8 hPa NE 6.4 km/h 33.8 km/h 60 % 0.0 mm 139 W/m2
13:25 8.6 °C 2.8 °C 1016.5 hPa Calm   33.8 km/h 67 % 0.0 mm 204 W/m2
13:30 8.9 °C 3.5 °C 1016.5 hPa NNE 6.4 km/h 8.0 km/h 69 % 0.0 mm 237 W/m2
13:35 11.1 °C 4.3 °C 1016.5 hPa NNE 4.8 km/h 9.7 km/h 63 % 0.0 mm 962 W/m2
13:40 11.3 °C 2.9 °C 1016.5 hPa NNW 6.4 km/h 11.3 km/h 56 % 0.0 mm 751 W/m2
13:45 11.5 °C 3.5 °C 1016.5 hPa East 4.8 km/h 12.9 km/h 58 % 0.0 mm 555 W/m2
13:50 12.3 °C 4.2 °C 1016.5 hPa NE 1.6 km/h 12.9 km/h 58 % 0.0 mm 1127 W/m2
13:55 11.9 °C 3.6 °C 1016.5 hPa East 8.0 km/h 11.3 km/h 57 % 0.0 mm 543 W/m2
14:00 11.3 °C 1.8 °C 1016.5 hPa NNE 8.0 km/h 17.7 km/h 52 % 0.0 mm 260 W/m2
14:05 10.8 °C 3.1 °C 1016.5 hPa NNW 12.9 km/h 20.9 km/h 59 % 0.0 mm 193 W/m2
14:10 10.1 °C 3.2 °C 1016.5 hPa WNW 1.6 km/h 20.9 km/h 62 % 0.0 mm 179 W/m2
14:15 9.8 °C 2.7 °C 1016.5 hPa West 3.2 km/h 20.9 km/h 61 % 0.0 mm 169 W/m2
14:20 9.8 °C 2.7 °C 1016.5 hPa NW 1.6 km/h 9.7 km/h 61 % 0.0 mm 223 W/m2
14:30 12.4 °C 4.4 °C 1016.5 hPa NNW 4.8 km/h 14.5 km/h 58 % 0.0 mm 1058 W/m2
14:35 13.6 °C 3.9 °C 1016.5 hPa North 6.4 km/h 12.9 km/h 52 % 0.0 mm 1121 W/m2
14:40 14.2 °C 3.0 °C 1016.5 hPa NW 6.4 km/h 12.9 km/h 47 % 0.0 mm 932 W/m2
14:45 13.2 °C 2.7 °C 1016.5 hPa ENE 14.5 km/h 16.1 km/h 49 % 0.0 mm 221 W/m2
14:50 11.3 °C 3.1 °C 1016.8 hPa NE 11.3 km/h 24.1 km/h 57 % 0.0 mm 127 W/m2
14:55 9.5 °C 2.6 °C 1016.8 hPa ESE 4.8 km/h 24.1 km/h 62 % 0.3 mm 114 W/m2
15:00 8.2 °C 3.2 °C 1016.8 hPa NNE 4.8 km/h 17.7 km/h 71 % 0.5 mm 178 W/m2
15:05 8.1 °C 4.4 °C 1016.8 hPa Calm   12.9 km/h 78 % 0.5 mm 209 W/m2
15:10 8.2 °C 4.8 °C 1016.8 hPa Calm   8.0 km/h 79 % 0.5 mm 225 W/m2
15:15 8.6 °C 5.4 °C 1016.8 hPa Calm   4.8 km/h 80 % 0.5 mm 237 W/m2
15:20 8.9 °C 5.1 °C 1016.8 hPa Calm   3.2 km/h 77 % 0.5 mm 244 W/m2
15:25 9.1 °C 5.3 °C 1016.8 hPa North 3.2 km/h 4.8 km/h 77 % 0.5 mm 253 W/m2
15:30 9.4 °C 5.9 °C 1016.8 hPa WNW 4.8 km/h 8.0 km/h 79 % 0.5 mm 257 W/m2
15:35 9.6 °C 5.2 °C 1016.8 hPa WNW 8.0 km/h 8.0 km/h 74 % 0.5 mm 274 W/m2
15:40 9.9 °C 5.7 °C 1016.8 hPa NW 3.2 km/h 12.9 km/h 75 % 0.5 mm 295 W/m2
15:45 10.1 °C 5.9 °C 1016.8 hPa WNW 11.3 km/h 16.1 km/h 75 % 0.5 mm 315 W/m2
15:50 10.3 °C 5.7 °C 1016.8 hPa NNW 8.0 km/h 16.1 km/h 73 % 0.5 mm 371 W/m2
15:55 10.4 °C 5.8 °C 1016.8 hPa North 11.3 km/h 17.7 km/h 73 % 0.0 mm 355 W/m2
16:00 10.6 °C 6.0 °C 1016.8 hPa NW 3.2 km/h 22.5 km/h 73 % 0.0 mm 385 W/m2
16:05 10.6 °C 5.4 °C 1016.8 hPa NE 8.0 km/h 22.5 km/h 70 % 0.0 mm 443 W/m2
16:10 10.9 °C 5.7 °C 1016.8 hPa NNE 8.0 km/h 17.7 km/h 70 % 0.0 mm 468 W/m2
16:15 11.3 °C 5.2 °C 1016.8 hPa NNW 3.2 km/h 17.7 km/h 66 % 0.0 mm 492 W/m2
16:20 11.5 °C 5.1 °C 1016.8 hPa NNW 6.4 km/h 14.5 km/h 65 % 0.0 mm 504 W/m2
16:25 11.6 °C 5.2 °C 1016.8 hPa NNW 4.8 km/h 14.5 km/h 65 % 0.0 mm 548 W/m2
16:30 11.6 °C 3.6 °C 1016.8 hPa NNE 4.8 km/h 16.1 km/h 58 % 0.0 mm 563 W/m2
16:35 11.6 °C 4.3 °C 1017.2 hPa ENE 14.5 km/h 32.2 km/h 61 % 0.0 mm 394 W/m2
16:40 10.3 °C 3.5 °C 1017.2 hPa East 24.1 km/h 33.8 km/h 63 % 0.3 mm 241 W/m2
16:45 9.3 °C 3.7 °C 1017.5 hPa ENE 20.9 km/h 33.8 km/h 68 % 0.3 mm 243 W/m2
16:50 8.7 °C 3.8 °C 1017.5 hPa ENE 22.5 km/h 35.4 km/h 71 % 0.3 mm 341 W/m2
16:55 8.6 °C 3.8 °C 1017.5 hPa NE 9.7 km/h 35.4 km/h 72 % 0.3 mm 315 W/m2
17:00 8.3 °C 3.3 °C 1017.5 hPa East 16.1 km/h 27.4 km/h 71 % 0.3 mm 190 W/m2
17:05 7.9 °C 2.8 °C 1017.5 hPa East 11.3 km/h 25.7 km/h 70 % 0.3 mm 69 W/m2
17:10 7.4 °C 2.9 °C 1017.5 hPa SE 11.3 km/h 25.7 km/h 73 % 0.3 mm 51 W/m2
17:15 6.9 °C 2.9 °C 1017.5 hPa Calm   20.9 km/h 76 % 0.5 mm 67 W/m2
17:20 6.6 °C 3.0 °C 1017.5 hPa East 8.0 km/h 14.5 km/h 78 % 0.5 mm 81 W/m2
17:25 6.4 °C 3.1 °C 1017.5 hPa East 4.8 km/h 14.5 km/h 79 % 0.5 mm 100 W/m2
17:30 6.6 °C 3.4 °C 1017.5 hPa ESE 4.8 km/h 11.3 km/h 80 % 0.5 mm 134 W/m2
17:35 6.8 °C 3.4 °C 1017.5 hPa ESE 4.8 km/h 12.9 km/h 79 % 0.5 mm 162 W/m2
17:40 6.9 °C 3.4 °C 1017.5 hPa ENE 8.0 km/h 14.5 km/h 78 % 0.3 mm 174 W/m2
17:45 7.2 °C 3.5 °C 1017.5 hPa East 8.0 km/h 20.9 km/h 77 % 0.3 mm 148 W/m2
17:50 7.3 °C 3.4 °C 1017.5 hPa East 3.2 km/h 20.9 km/h 76 % 0.3 mm 63 W/m2
17:55 7.3 °C 3.9 °C 1017.5 hPa ENE 4.8 km/h 19.3 km/h 79 % 0.3 mm 86 W/m2
18:00 7.2 °C 4.1 °C 1017.5 hPa East 11.3 km/h 19.3 km/h 81 % 0.3 mm 95 W/m2
18:05 7.2 °C 4.3 °C 1017.5 hPa East 8.0 km/h 14.5 km/h 82 % 0.3 mm 114 W/m2
18:10 7.2 °C 3.9 °C 1017.5 hPa ENE 4.8 km/h 14.5 km/h 80 % 0.3 mm 134 W/m2
18:15 7.2 °C 4.2 °C 1017.5 hPa ESE 3.2 km/h 16.1 km/h 81 % 0.0 mm 167 W/m2
18:20 7.3 °C 3.7 °C 1017.8 hPa East 8.0 km/h 16.1 km/h 78 % 0.0 mm 174 W/m2
18:25 7.5 °C 3.9 °C 1017.8 hPa ENE 11.3 km/h 12.9 km/h 78 % 0.0 mm 156 W/m2
18:30 7.6 °C 4.0 °C 1018.2 hPa NE 11.3 km/h 22.5 km/h 78 % 0.0 mm 109 W/m2
18:35 7.3 °C 3.7 °C 1018.2 hPa NNE 12.9 km/h 25.7 km/h 78 % 0.0 mm 79 W/m2
18:40 6.9 °C 3.7 °C 1018.5 hPa ENE 9.7 km/h 25.7 km/h 80 % 0.5 mm 19 W/m2
18:45 6.3 °C 3.7 °C 1018.5 hPa NNW 6.4 km/h 24.1 km/h 83 % 0.5 mm 19 W/m2
18:50 5.9 °C 3.6 °C 1018.5 hPa NNE 3.2 km/h 22.5 km/h 85 % 0.8 mm 23 W/m2
18:55 5.7 °C 3.5 °C 1018.2 hPa North 6.4 km/h 12.9 km/h 86 % 1.0 mm 25 W/m2
19:00 5.6 °C 3.4 °C 1018.2 hPa ENE 6.4 km/h 12.9 km/h 86 % 1.3 mm 30 W/m2
19:05 5.6 °C 3.6 °C 1018.2 hPa NNE 3.2 km/h 12.9 km/h 87 % 1.5 mm 28 W/m2
19:10 5.5 °C 3.8 °C 1017.8 hPa North 4.8 km/h 6.4 km/h 89 % 1.5 mm 37 W/m2
19:15 5.4 °C 3.8 °C 1017.8 hPa NNW 3.2 km/h 8.0 km/h 89 % 1.5 mm 46 W/m2
19:20 5.6 °C 4.0 °C 1017.8 hPa North 1.6 km/h 8.0 km/h 90 % 1.5 mm 56 W/m2
19:25 5.6 °C 4.0 °C 1017.8 hPa Calm   6.4 km/h 90 % 1.5 mm 67 W/m2
19:30 5.7 °C 4.4 °C 1017.8 hPa North 1.6 km/h 4.8 km/h 91 % 1.5 mm 81 W/m2
19:35 5.8 °C 4.6 °C 1017.8 hPa North 3.2 km/h 4.8 km/h 92 % 1.5 mm 97 W/m2
19:40 6.1 °C 5.1 °C 1017.8 hPa Calm   4.8 km/h 93 % 1.0 mm 128 W/m2
19:45 6.3 °C 5.3 °C 1017.8 hPa NNW 11.3 km/h 11.3 km/h 93 % 0.8 mm 111 W/m2
19:50 6.3 °C 5.1 °C 1017.8 hPa NNE 3.2 km/h 11.3 km/h 92 % 0.5 mm 116 W/m2
19:55 6.4 °C 5.2 °C 1017.8 hPa North 3.2 km/h 14.5 km/h 92 % 0.5 mm 93 W/m2
20:00 6.3 °C 4.8 °C 1017.8 hPa North 9.7 km/h 16.1 km/h 90 % 0.3 mm 84 W/m2
20:05 6.3 °C 4.8 °C 1017.8 hPa North 4.8 km/h 16.1 km/h 90 % 0.0 mm 70 W/m2
20:10 6.2 °C 4.5 °C 1017.8 hPa NNE 11.3 km/h 16.1 km/h 89 % 0.0 mm 58 W/m2
20:15 6.1 °C 4.4 °C 1017.8 hPa North 8.0 km/h 16.1 km/h 89 % 0.0 mm 49 W/m2
20:20 6.1 °C 4.4 °C 1017.8 hPa NNE 6.4 km/h 14.5 km/h 89 % 0.0 mm 44 W/m2
20:25 6.1 °C 4.4 °C 1017.8 hPa NNE 9.7 km/h 12.9 km/h 89 % 0.0 mm 39 W/m2
20:30 6.1 °C 4.4 °C 1017.8 hPa North 1.6 km/h 11.3 km/h 89 % 0.0 mm 35 W/m2
20:35 5.9 °C 4.4 °C 1018.2 hPa NNE 3.2 km/h 11.3 km/h 90 % 0.0 mm 30 W/m2
20:40 5.8 °C 4.3 °C 1018.2 hPa NNW 3.2 km/h 9.7 km/h 90 % 0.0 mm 23 W/m2
20:45 5.8 °C 4.3 °C 1018.2 hPa North 9.7 km/h 19.3 km/h 90 % 0.0 mm 18 W/m2
20:50 5.7 °C 4.2 °C 1018.2 hPa Calm   19.3 km/h 90 % 0.0 mm 14 W/m2
20:55 5.7 °C 4.2 °C 1018.2 hPa North 1.6 km/h 12.9 km/h 90 % 0.0 mm 11 W/m2
21:00 5.7 °C 4.2 °C 1018.2 hPa North 3.2 km/h 12.9 km/h 90 % 0.0 mm 9 W/m2
21:05 5.7 °C 4.2 °C 1018.2 hPa North 1.6 km/h 12.9 km/h 90 % 0.0 mm 5 W/m2
21:10 5.6 °C 4.1 °C 1018.5 hPa WNW 4.8 km/h 12.9 km/h 90 % 0.0 mm 0 W/m2
21:15 5.6 °C 4.0 °C 1018.5 hPa NNE 8.0 km/h 12.9 km/h 90 % 0.0 mm 0 W/m2
21:20 5.4 °C 3.9 °C 1018.5 hPa Calm   11.3 km/h 90 % 0.0 mm 0 W/m2
21:25 5.3 °C 3.8 °C 1018.5 hPa North 3.2 km/h 9.7 km/h 90 % 0.0 mm 0 W/m2
21:30 5.0 °C 3.5 °C 1018.5 hPa NNE 4.8 km/h 9.7 km/h 90 % 0.0 mm 0 W/m2
21:35 4.8 °C 3.3 °C 1018.5 hPa NNE 1.6 km/h 9.7 km/h 90 % 0.0 mm 0 W/m2
21:40 4.6 °C 3.1 °C 1018.5 hPa NE 6.4 km/h 9.7 km/h 90 % 0.0 mm 0 W/m2
21:45 4.3 °C 2.9 °C 1018.5 hPa NNE 3.2 km/h 8.0 km/h 91 % 0.0 mm 0 W/m2
21:50 4.1 °C 2.8 °C 1018.5 hPa North 1.6 km/h 8.0 km/h 91 % 0.0 mm 0 W/m2
21:55 4.0 °C 2.8 °C 1018.8 hPa North 1.6 km/h 9.7 km/h 92 % 0.0 mm 0 W/m2
22:00 3.9 °C 2.8 °C 1018.8 hPa North 3.2 km/h 9.7 km/h 92 % 0.0 mm 0 W/m2
22:05 3.9 °C 2.7 °C 1018.8 hPa NNW 4.8 km/h 8.0 km/h 92 % 0.0 mm 0 W/m2
22:10 3.8 °C 2.7 °C 1018.8 hPa NNE 3.2 km/h 8.0 km/h 92 % 0.0 mm 0 W/m2
22:15 4.1 °C 3.0 °C 1018.8 hPa North 1.6 km/h 8.0 km/h 93 % 0.0 mm 0 W/m2
22:20 4.1 °C 2.9 °C 1019.2 hPa North 4.8 km/h 14.5 km/h 92 % 0.0 mm 0 W/m2
22:25 4.2 °C 3.0 °C 1019.2 hPa North 4.8 km/h 16.1 km/h 92 % 0.3 mm 0 W/m2
22:30 4.3 °C 3.1 °C 1019.2 hPa ENE 11.3 km/h 16.1 km/h 92 % 0.3 mm 0 W/m2
22:40 4.2 °C 2.8 °C 1019.2 hPa NE 8.0 km/h 14.5 km/h 91 % 0.3 mm 0 W/m2
22:45 4.1 °C 2.7 °C 1019.2 hPa NNE 3.2 km/h 9.7 km/h 91 % 0.3 mm 0 W/m2
22:50 3.8 °C 2.5 °C 1019.2 hPa North 3.2 km/h 9.7 km/h 91 % 0.3 mm 0 W/m2
22:55 3.7 °C 2.3 °C 1019.2 hPa North 3.2 km/h 6.4 km/h 91 % 0.3 mm 0 W/m2
23:00 3.4 °C 2.3 °C 1019.5 hPa Calm   6.4 km/h 92 % 0.3 mm 0 W/m2
23:05 3.3 °C 2.1 °C 1019.2 hPa North 1.6 km/h 6.4 km/h 92 % 0.3 mm 0 W/m2
23:10 3.2 °C 2.0 °C 1019.2 hPa Calm   6.4 km/h 92 % 0.3 mm 0 W/m2
23:15 3.0 °C 2.0 °C 1019.5 hPa Calm   4.8 km/h 93 % 0.3 mm 0 W/m2
23:20 2.9 °C 1.9 °C 1019.5 hPa North 1.6 km/h 4.8 km/h 93 % 0.3 mm 0 W/m2
23:25 2.7 °C 1.7 °C 1019.5 hPa Calm   4.8 km/h 93 % 0.0 mm 0 W/m2
23:30 2.6 °C 1.6 °C 1019.5 hPa Calm   3.2 km/h 93 % 0.0 mm 0 W/m2
23:35 2.8 °C 1.9 °C 1019.9 hPa North 1.6 km/h 3.2 km/h 94 % 0.0 mm 0 W/m2
23:40 2.8 °C 1.8 °C 1019.9 hPa ENE 6.4 km/h 8.0 km/h 93 % 0.0 mm 0 W/m2
23:45 3.0 °C 2.1 °C 1019.9 hPa ENE 1.6 km/h 8.0 km/h 94 % 0.0 mm 0 W/m2
23:50 3.0 °C 2.0 °C 1019.5 hPa Calm   6.4 km/h 93 % 0.0 mm 0 W/m2
23:55 3.1 °C 2.2 °C 1019.5 hPa Calm   4.8 km/h 94 % 0.0 mm 0 W/m2
Avec l'autorisation de Weather Underground - 1.75 mb